HappyWetter - St.Margarethen im Burgenland
Wetterdaten: aktuell Freitag, 07.05.2021 09:09
Datum Zeit Temp. A. Feuchte A. Luftdruck Regen Wind Richtung Richtung Sonnenschein ET Solar Taupunkt Windchill Windben Empfang
07.05.2021 09:09 10,6 C 90 % 1008,2 hPa 0,0 l/m 0,6 km/h (0 Bft) N-NW 338 0 min 0,026 mm 76 W/m 9,0 C 10,6 C 3,2 km/h (1 Bft) 96,00 %
07.05.2021 08:09 10,0 C 90 % 1007,6 hPa 0,0 l/m 3,0 km/h (1 Bft) O-SO 113 0 min 0,025 mm 49 W/m 8,4 C 10,0 C 4,8 km/h (1 Bft) 95,83 %
07.05.2021 07:09 9,2 C 90 % 1007,3 hPa 0,0 l/m 2,0 km/h (1 Bft) N 355 0 min 0,000 mm 16 W/m 7,6 C 9,2 C 4,8 km/h (1 Bft) 100,00 %
07.05.2021 06:09 8,9 C 90 % 1006,7 hPa 0,0 l/m 4,5 km/h (1 Bft) N-NW 337 0 min 0,000 mm 5 W/m 7,4 C 8,9 C 6,4 km/h (2 Bft) 91,67 %
07.05.2021 05:09 9,0 C 89 % 1006,4 hPa 0,0 l/m 0,9 km/h (0 Bft) W-NW 302 0 min 0,000 mm 0 W/m 7,3 C 9,0 C 1,6 km/h (1 Bft) 96,15 %
07.05.2021 04:09 9,1 C 87 % 1005,8 hPa 0,0 l/m 2,2 km/h (1 Bft) O-SO 120 0 min 0,000 mm 0 W/m 7,1 C 9,1 C 3,2 km/h (1 Bft) 100,00 %
07.05.2021 03:07 9,3 C 85 % 1006,3 hPa 0,0 l/m 1,5 km/h (1 Bft) W-SW 254 0 min 0,000 mm 0 W/m 6,9 C 9,3 C 3,2 km/h (1 Bft) 92,00 %
07.05.2021 02:07 9,6 C 83 % 1005,6 hPa 0,0 l/m 2,4 km/h (1 Bft) N 355 0 min 0,026 mm 0 W/m 6,9 C 9,6 C 4,8 km/h (1 Bft) 100,00 %
07.05.2021 01:07 10,2 C 81 % 1005,8 hPa 0,0 l/m 6,2 km/h (2 Bft) SO 134 0 min 0,025 mm 0 W/m 7,1 C 10,2 C 8,0 km/h (2 Bft) 95,83 %
07.05.2021 00:07 10,7 C 80 % 1006,4 hPa 0,0 l/m 14,1 km/h (3 Bft) S-SO 167 0 min 0,000 mm 0 W/m 7,4 C 6,4 C 22,5 km/h (4 Bft) 100,00 %
06.05.2021 23:07 10,8 C 78 % 1006,7 hPa 0,0 l/m 19,2 km/h (3 Bft) S 173 0 min 0,051 mm 0 W/m 7,1 C 4,6 C 27,4 km/h (4 Bft) 100,00 %
06.05.2021 22:06 10,6 C 78 % 1007,5 hPa 0,0 l/m 14,1 km/h (3 Bft) S-SO 165 0 min 0,050 mm 0 W/m 6,9 C 6,2 C 24,1 km/h (4 Bft) 100,00 %
06.05.2021 21:06 10,8 C 71 % 1007,9 hPa 0,0 l/m 11,2 km/h (2 Bft) SO 140 0 min 0,051 mm 0 W/m 5,8 C 7,8 C 14,5 km/h (3 Bft) 100,00 %
06.05.2021 20:06 11,8 C 64 % 1007,9 hPa 0,0 l/m 15,1 km/h (3 Bft) SO 141 0 min 0,102 mm 5 W/m 5,2 C 7,3 C 19,3 km/h (3 Bft) 100,00 %
06.05.2021 19:06 13,2 C 58 % 1008,2 hPa 0,0 l/m 23,0 km/h (4 Bft) SO 128 31 min 0,203 mm 63 W/m 5,1 C 6,6 C 32,2 km/h (5 Bft) 96,00 %
06.05.2021 18:06 14,4 C 52 % 1009,1 hPa 0,0 l/m 22,8 km/h (4 Bft) S 171 60 min 0,330 mm 290 W/m 4,7 C 8,3 C 29,0 km/h (5 Bft) 95,83 %
06.05.2021 17:06 15,4 C 54 % 1010,0 hPa 0,0 l/m 17,1 km/h (3 Bft) S 186 60 min 0,432 mm 448 W/m 6,1 C 11,0 C 30,6 km/h (5 Bft) 100,00 %
06.05.2021 16:06 15,6 C 53 % 1011,2 hPa 0,0 l/m 25,4 km/h (4 Bft) S-SW 195 60 min 0,356 mm 654 W/m 6,1 C 9,3 C 33,8 km/h (5 Bft) 95,83 %
06.05.2021 15:06 13,8 C 57 % 1011,7 hPa 0,0 l/m 27,6 km/h (4 Bft) SO 134 60 min 0,203 mm 308 W/m 5,4 C 6,4 C 40,2 km/h (6 Bft) 100,00 %
06.05.2021 14:05 14,1 C 58 % 1012,6 hPa 0,0 l/m 15,4 km/h (3 Bft) S 186 60 min 0,381 mm 295 W/m 6,0 C 10,0 C 24,1 km/h (4 Bft) 96,00 %
06.05.2021 13:05 16,2 C 55 % 1013,0 hPa 0,0 l/m 20,3 km/h (4 Bft) S 183 60 min 0,508 mm 1035 W/m 7,2 C 11,2 C 32,2 km/h (5 Bft) 100,00 %
06.05.2021 12:05 14,4 C 60 % 1013,5 hPa 0,0 l/m 22,6 km/h (4 Bft) S-SW 202 60 min 0,254 mm 506 W/m 6,7 C 8,3 C 29,0 km/h (5 Bft) 100,00 %
06.05.2021 11:05 12,6 C 66 % 1014,0 hPa 0,0 l/m 22,9 km/h (4 Bft) S 178 60 min 0,152 mm 253 W/m 6,4 C 5,9 C 33,8 km/h (5 Bft) 96,00 %
06.05.2021 10:05 11,4 C 72 % 1014,0 hPa 0,0 l/m 6,2 km/h (2 Bft) S-SO 154 5 min 0,127 mm 243 W/m 6,5 C 11,4 C 8,0 km/h (2 Bft) 87,50 %
06.05.2021 10:00 11,3 C 73 % 1014,1 hPa 0,0 l/m 5,3 km/h (1 Bft) S-SW 198 0 min 0,127 mm 239 W/m 6,6 C 11,3 C 8,0 km/h (2 Bft) 100,00 %
_ Min-Zeit 06:38 17:48 04:25 - 06:05 - - - - - 18:04 22:01 06:05 06:36
Minimum _ 8,9 C 50 % 1005,2 hPa - 0,0 km/h (0 Bft) - - - - - 4,4 C 3,1 C 0,0 km/h (0 Bft) 75,00 %
_ Max-Zeit 13:12 08:58 11:01 09:09 15:46 - - 14:44 13:00 12:18 08:58 12:46 15:01 09:07
Maximum _ 16,2 C 91 % 1014,1 hPa 0,0 l/m 31,1 km/h
SO (5 Bft)
- - 2 min 0,508 mm 1155 W/m 9,2 C 15,7 C 48,3 km/h
S-SO (6 Bft)
100,00 %
Durchschnitt _ 11,7 C 72 % 1009,2 hPa #0,0 l/m 11,2 km/h (2 Bft) SO - #0 min. #0,102 mm 37 W/m 6,6 C 9,1 C 17,3 km/h (3 Bft) 97,57 %